KEFK

Details ICAO KEFK
Name NEWPORT STATE
Region United States
Timezone America/New_York (UTC-5.0)
Plans Departing 6
Arriving 2
Stats Elevation 930 ft / 283 m (AMSL)
Location 44.888792° -72.229172°
Runways 2
Magnetic Variation 14.861° W
Sunrise 2017-12-16 12:22:10 UTC / 2017-12-16 07:22:10 Local
Sunset 2017-12-16 21:09:53 UTC / 2017-12-16 16:09:53 Local
Advertisement - Login to hide

Runways

ID Width Length Bearing (true) Bearing (mag) Surface Threshold Offset Overrun Length
05 100 ft / 30 m 4,000 ft / 1,219 m 29.42° 44.28° Asphalt 0 ft / 0 m 0 ft / 0 m
18 100 ft / 30 m 3,998 ft / 1,218 m 159.61° 174.47° Asphalt 0 ft / 0 m 0 ft / 0 m
23 100 ft / 30 m 4,000 ft / 1,219 m 209.43° 224.29° Asphalt 0 ft / 0 m 0 ft / 0 m
36 100 ft / 30 m 3,998 ft / 1,218 m 339.62° 354.48° Asphalt 0 ft / 0 m 0 ft / 0 m

Map

Weather


0- 5 10 15 20 25 30 35+ Temperature / ° C

Clouds and Precipitation
Forecast for 2017-12-17 00:00 UTC. Updated an hour ago

Ground ~20,000 ft ~40,000 ft Winds

METAR

KEFK 162035Z AUTO 28011G21KT 4SM -SN BKN014 BKN023 M09/M13 A2990 RMK AO2 T10901130

TAF

Not found

Frequencies

Recorded 118.27 MHz AWOS 3
Unicom 122.80 MHz CTAF/UNICOM
Warning: Do not use this data for real-world aviation or navigation. No guarantee of current accuracy is given.